sensor_id;sensor_type;location;lat;lon;timestamp;P1;durP1;ratioP1;P2;durP2;ratioP2
17761;SDS011;9005;48.838;10.112;2023-05-23T00:00:39;0.32;;;0.32;;
17761;SDS011;9005;48.838;10.112;2023-05-23T00:03:06;1.00;;;1.00;;
17761;SDS011;9005;48.838;10.112;2023-05-23T00:05:34;0.32;;;0.32;;
17761;SDS011;9005;48.838;10.112;2023-05-23T00:08:01;1.55;;;1.35;;
17761;SDS011;9005;48.838;10.112;2023-05-23T00:10:28;0.40;;;0.40;;
17761;SDS011;9005;48.838;10.112;2023-05-23T00:12:56;0.40;;;0.40;;
17761;SDS011;9005;48.838;10.112;2023-05-23T00:15:23;0.40;;;0.40;;
17761;SDS011;9005;48.838;10.112;2023-05-23T00:17:50;0.60;;;0.60;;
17761;SDS011;9005;48.838;10.112;2023-05-23T00:20:17;0.50;;;0.50;;
17761;SDS011;9005;48.838;10.112;2023-05-23T00:22:45;0.22;;;0.22;;
17761;SDS011;9005;48.838;10.112;2023-05-23T00:25:12;1.20;;;0.60;;
17761;SDS011;9005;48.838;10.112;2023-05-23T00:27:39;0.68;;;0.40;;
17761;SDS011;9005;48.838;10.112;2023-05-23T00:30:07;2.65;;;0.68;;
17761;SDS011;9005;48.838;10.112;2023-05-23T00:32:34;1.08;;;1.00;;
17761;SDS011;9005;48.838;10.112;2023-05-23T00:35:01;0.63;;;0.60;;
17761;SDS011;9005;48.838;10.112;2023-05-23T00:37:29;0.30;;;0.30;;
17761;SDS011;9005;48.838;10.112;2023-05-23T00:39:56;0.47;;;0.47;;
17761;SDS011;9005;48.838;10.112;2023-05-23T00:42:22;1.30;;;0.68;;
17761;SDS011;9005;48.838;10.112;2023-05-23T00:44:49;0.45;;;0.45;;
17761;SDS011;9005;48.838;10.112;2023-05-23T00:47:17;2.75;;;0.60;;
17761;SDS011;9005;48.838;10.112;2023-05-23T00:49:44;1.42;;;1.20;;
17761;SDS011;9005;48.838;10.112;2023-05-23T00:52:11;0.57;;;0.57;;
17761;SDS011;9005;48.838;10.112;2023-05-23T00:54:38;1.35;;;0.65;;
17761;SDS011;9005;48.838;10.112;2023-05-23T00:57:05;0.70;;;0.70;;
17761;SDS011;9005;48.838;10.112;2023-05-23T00:59:32;0.50;;;0.50;;
17761;SDS011;9005;48.838;10.112;2023-05-23T01:02:02;0.65;;;0.65;;
17761;SDS011;9005;48.838;10.112;2023-05-23T01:04:31;0.25;;;0.25;;
17761;SDS011;9005;48.838;10.112;2023-05-23T01:06:58;0.40;;;0.40;;
17761;SDS011;9005;48.838;10.112;2023-05-23T01:09:26;0.30;;;0.30;;
17761;SDS011;9005;48.838;10.112;2023-05-23T01:11:56;0.68;;;0.63;;
17761;SDS011;9005;48.838;10.112;2023-05-23T01:14:31;0.82;;;0.82;;
17761;SDS011;9005;48.838;10.112;2023-05-23T01:17:09;0.75;;;0.75;;
17761;SDS011;9005;48.838;10.112;2023-05-23T01:19:46;0.90;;;0.90;;
17761;SDS011;9005;48.838;10.112;2023-05-23T01:22:22;0.57;;;0.57;;
17761;SDS011;9005;48.838;10.112;2023-05-23T01:25:14;0.43;;;0.43;;
17761;SDS011;9005;48.838;10.112;2023-05-23T01:27:56;0.63;;;0.63;;
17761;SDS011;9005;48.838;10.112;2023-05-23T01:30:25;1.10;;;1.10;;
17761;SDS011;9005;48.838;10.112;2023-05-23T01:32:56;0.50;;;0.50;;
17761;SDS011;9005;48.838;10.112;2023-05-23T01:35:25;0.38;;;0.38;;
17761;SDS011;9005;48.838;10.112;2023-05-23T01:37:53;0.30;;;0.30;;
17761;SDS011;9005;48.838;10.112;2023-05-23T01:40:20;0.40;;;0.40;;
17761;SDS011;9005;48.838;10.112;2023-05-23T01:42:47;1.55;;;0.63;;
17761;SDS011;9005;48.838;10.112;2023-05-23T01:45:15;0.35;;;0.35;;
17761;SDS011;9005;48.838;10.112;2023-05-23T01:47:42;1.13;;;0.85;;
17761;SDS011;9005;48.838;10.112;2023-05-23T01:50:11;0.68;;;0.68;;
17761;SDS011;9005;48.838;10.112;2023-05-23T01:52:39;0.55;;;0.40;;
17761;SDS011;9005;48.838;10.112;2023-05-23T01:55:06;0.70;;;0.50;;
17761;SDS011;9005;48.838;10.112;2023-05-23T01:57:36;1.67;;;1.58;;
17761;SDS011;9005;48.838;10.112;2023-05-23T02:00:04;1.15;;;0.50;;
17761;SDS011;9005;48.838;10.112;2023-05-23T02:02:33;0.43;;;0.43;;
17761;SDS011;9005;48.838;10.112;2023-05-23T02:05:00;1.15;;;1.05;;
17761;SDS011;9005;48.838;10.112;2023-05-23T02:07:27;0.20;;;0.20;;
17761;SDS011;9005;48.838;10.112;2023-05-23T02:09:53;0.40;;;0.38;;
17761;SDS011;9005;48.838;10.112;2023-05-23T02:12:21;1.20;;;1.10;;
17761;SDS011;9005;48.838;10.112;2023-05-23T02:14:48;0.88;;;0.85;;
17761;SDS011;9005;48.838;10.112;2023-05-23T02:17:16;0.40;;;0.40;;
17761;SDS011;9005;48.838;10.112;2023-05-23T02:19:44;0.43;;;0.43;;
17761;SDS011;9005;48.838;10.112;2023-05-23T02:22:10;0.77;;;0.77;;
17761;SDS011;9005;48.838;10.112;2023-05-23T02:24:37;0.70;;;0.70;;
17761;SDS011;9005;48.838;10.112;2023-05-23T02:27:04;0.35;;;0.30;;
17761;SDS011;9005;48.838;10.112;2023-05-23T02:29:31;0.77;;;0.77;;
17761;SDS011;9005;48.838;10.112;2023-05-23T02:31:57;0.38;;;0.38;;
17761;SDS011;9005;48.838;10.112;2023-05-23T02:34:24;2.15;;;1.48;;
17761;SDS011;9005;48.838;10.112;2023-05-23T02:36:52;1.52;;;1.42;;
17761;SDS011;9005;48.838;10.112;2023-05-23T02:39:19;0.70;;;0.70;;
17761;SDS011;9005;48.838;10.112;2023-05-23T02:41:46;0.60;;;0.60;;
17761;SDS011;9005;48.838;10.112;2023-05-23T02:44:13;1.00;;;0.90;;
17761;SDS011;9005;48.838;10.112;2023-05-23T02:46:40;0.75;;;0.75;;
17761;SDS011;9005;48.838;10.112;2023-05-23T02:49:06;0.50;;;0.50;;
17761;SDS011;9005;48.838;10.112;2023-05-23T02:51:33;0.57;;;0.57;;
17761;SDS011;9005;48.838;10.112;2023-05-23T02:54:01;0.38;;;0.35;;
17761;SDS011;9005;48.838;10.112;2023-05-23T02:56:28;0.55;;;0.55;;
17761;SDS011;9005;48.838;10.112;2023-05-23T02:58:54;0.57;;;0.57;;
17761;SDS011;9005;48.838;10.112;2023-05-23T03:01:21;0.20;;;0.20;;
17761;SDS011;9005;48.838;10.112;2023-05-23T03:03:48;0.65;;;0.65;;
17761;SDS011;9005;48.838;10.112;2023-05-23T03:06:15;0.50;;;0.50;;
17761;SDS011;9005;48.838;10.112;2023-05-23T03:08:42;0.65;;;0.65;;
17761;SDS011;9005;48.838;10.112;2023-05-23T03:11:10;0.77;;;0.77;;
17761;SDS011;9005;48.838;10.112;2023-05-23T03:13:37;0.80;;;0.80;;
17761;SDS011;9005;48.838;10.112;2023-05-23T03:16:03;1.15;;;1.02;;
17761;SDS011;9005;48.838;10.112;2023-05-23T03:18:30;2.67;;;1.77;;
17761;SDS011;9005;48.838;10.112;2023-05-23T03:20:57;1.85;;;0.82;;
17761;SDS011;9005;48.838;10.112;2023-05-23T03:23:24;4.78;;;0.82;;
17761;SDS011;9005;48.838;10.112;2023-05-23T03:25:50;0.93;;;0.77;;
17761;SDS011;9005;48.838;10.112;2023-05-23T03:28:18;0.80;;;0.80;;
17761;SDS011;9005;48.838;10.112;2023-05-23T03:30:45;1.80;;;0.60;;
17761;SDS011;9005;48.838;10.112;2023-05-23T03:33:12;0.22;;;0.22;;
17761;SDS011;9005;48.838;10.112;2023-05-23T03:35:38;0.40;;;0.40;;
17761;SDS011;9005;48.838;10.112;2023-05-23T03:38:05;1.13;;;1.05;;
17761;SDS011;9005;48.838;10.112;2023-05-23T03:40:32;1.30;;;0.80;;
17761;SDS011;9005;48.838;10.112;2023-05-23T03:43:02;1.65;;;1.25;;
17761;SDS011;9005;48.838;10.112;2023-05-23T03:45:31;2.13;;;1.33;;
17761;SDS011;9005;48.838;10.112;2023-05-23T03:47:58;0.55;;;0.55;;
17761;SDS011;9005;48.838;10.112;2023-05-23T03:50:26;1.77;;;1.50;;
17761;SDS011;9005;48.838;10.112;2023-05-23T03:52:53;0.47;;;0.47;;
17761;SDS011;9005;48.838;10.112;2023-05-23T03:55:20;4.50;;;1.65;;
17761;SDS011;9005;48.838;10.112;2023-05-23T03:57:48;1.42;;;1.33;;
17761;SDS011;9005;48.838;10.112;2023-05-23T04:00:15;1.42;;;1.33;;
17761;SDS011;9005;48.838;10.112;2023-05-23T04:02:44;1.27;;;1.25;;
17761;SDS011;9005;48.838;10.112;2023-05-23T04:05:11;0.30;;;0.30;;
17761;SDS011;9005;48.838;10.112;2023-05-23T04:07:38;1.02;;;0.93;;
17761;SDS011;9005;48.838;10.112;2023-05-23T04:10:06;1.25;;;0.77;;
17761;SDS011;9005;48.838;10.112;2023-05-23T04:12:33;0.40;;;0.40;;
17761;SDS011;9005;48.838;10.112;2023-05-23T04:15:00;0.98;;;0.65;;
17761;SDS011;9005;48.838;10.112;2023-05-23T04:17:27;0.68;;;0.40;;
17761;SDS011;9005;48.838;10.112;2023-05-23T04:19:56;0.80;;;0.80;;
17761;SDS011;9005;48.838;10.112;2023-05-23T04:22:23;1.52;;;1.08;;
17761;SDS011;9005;48.838;10.112;2023-05-23T04:24:50;6.75;;;2.42;;
17761;SDS011;9005;48.838;10.112;2023-05-23T04:27:17;1.20;;;1.13;;
17761;SDS011;9005;48.838;10.112;2023-05-23T04:29:44;2.15;;;0.90;;
17761;SDS011;9005;48.838;10.112;2023-05-23T04:32:11;0.80;;;0.80;;
17761;SDS011;9005;48.838;10.112;2023-05-23T04:34:38;4.28;;;1.73;;
17761;SDS011;9005;48.838;10.112;2023-05-23T04:37:07;0.50;;;0.50;;
17761;SDS011;9005;48.838;10.112;2023-05-23T04:39:34;1.05;;;0.82;;
17761;SDS011;9005;48.838;10.112;2023-05-23T04:42:01;2.58;;;1.27;;
17761;SDS011;9005;48.838;10.112;2023-05-23T04:44:27;0.60;;;0.60;;
17761;SDS011;9005;48.838;10.112;2023-05-23T04:46:54;0.85;;;0.85;;
17761;SDS011;9005;48.838;10.112;2023-05-23T04:49:21;0.88;;;0.68;;
17761;SDS011;9005;48.838;10.112;2023-05-23T04:51:48;0.63;;;0.63;;
17761;SDS011;9005;48.838;10.112;2023-05-23T04:54:16;0.93;;;0.68;;
17761;SDS011;9005;48.838;10.112;2023-05-23T04:56:43;0.47;;;0.47;;
17761;SDS011;9005;48.838;10.112;2023-05-23T04:59:09;0.95;;;0.88;;
17761;SDS011;9005;48.838;10.112;2023-05-23T05:01:37;1.00;;;1.00;;
17761;SDS011;9005;48.838;10.112;2023-05-23T05:04:04;1.80;;;1.10;;
17761;SDS011;9005;48.838;10.112;2023-05-23T05:06:31;0.85;;;0.85;;
17761;SDS011;9005;48.838;10.112;2023-05-23T05:08:58;3.25;;;1.73;;
17761;SDS011;9005;48.838;10.112;2023-05-23T05:11:26;17.73;;;1.05;;
17761;SDS011;9005;48.838;10.112;2023-05-23T05:13:53;0.90;;;0.50;;
17761;SDS011;9005;48.838;10.112;2023-05-23T05:16:19;0.88;;;0.88;;
17761;SDS011;9005;48.838;10.112;2023-05-23T05:18:46;0.70;;;0.70;;
17761;SDS011;9005;48.838;10.112;2023-05-23T05:21:13;1.65;;;1.55;;
17761;SDS011;9005;48.838;10.112;2023-05-23T05:23:40;0.55;;;0.55;;
17761;SDS011;9005;48.838;10.112;2023-05-23T05:26:07;1.55;;;1.27;;
17761;SDS011;9005;48.838;10.112;2023-05-23T05:28:35;1.40;;;1.30;;
17761;SDS011;9005;48.838;10.112;2023-05-23T05:31:02;0.68;;;0.68;;
17761;SDS011;9005;48.838;10.112;2023-05-23T05:33:29;1.25;;;1.15;;
17761;SDS011;9005;48.838;10.112;2023-05-23T05:35:59;1.35;;;1.25;;
17761;SDS011;9005;48.838;10.112;2023-05-23T05:38:26;1.05;;;0.95;;
17761;SDS011;9005;48.838;10.112;2023-05-23T05:40:53;1.48;;;1.38;;
17761;SDS011;9005;48.838;10.112;2023-05-23T05:43:20;1.02;;;1.00;;
17761;SDS011;9005;48.838;10.112;2023-05-23T05:45:48;0.77;;;0.77;;
17761;SDS011;9005;48.838;10.112;2023-05-23T05:48:14;1.63;;;1.52;;
17761;SDS011;9005;48.838;10.112;2023-05-23T05:50:41;1.00;;;0.93;;
17761;SDS011;9005;48.838;10.112;2023-05-23T05:53:09;0.80;;;0.80;;
17761;SDS011;9005;48.838;10.112;2023-05-23T05:55:36;1.08;;;1.02;;
17761;SDS011;9005;48.838;10.112;2023-05-23T05:58:03;1.45;;;1.02;;
17761;SDS011;9005;48.838;10.112;2023-05-23T06:00:30;1.25;;;0.95;;
17761;SDS011;9005;48.838;10.112;2023-05-23T06:02:58;0.75;;;0.75;;
17761;SDS011;9005;48.838;10.112;2023-05-23T06:05:25;5.50;;;3.13;;
17761;SDS011;9005;48.838;10.112;2023-05-23T06:07:51;0.65;;;0.65;;
17761;SDS011;9005;48.838;10.112;2023-05-23T06:10:18;0.93;;;0.93;;
17761;SDS011;9005;48.838;10.112;2023-05-23T06:12:45;1.30;;;1.25;;
17761;SDS011;9005;48.838;10.112;2023-05-23T06:15:12;2.95;;;2.00;;
17761;SDS011;9005;48.838;10.112;2023-05-23T06:17:39;0.60;;;0.60;;
17761;SDS011;9005;48.838;10.112;2023-05-23T06:20:08;1.42;;;1.33;;
17761;SDS011;9005;48.838;10.112;2023-05-23T06:22:36;1.05;;;1.05;;
17761;SDS011;9005;48.838;10.112;2023-05-23T06:25:03;1.15;;;0.70;;
17761;SDS011;9005;48.838;10.112;2023-05-23T06:27:31;0.43;;;0.43;;
17761;SDS011;9005;48.838;10.112;2023-05-23T06:29:58;3.45;;;2.45;;
17761;SDS011;9005;48.838;10.112;2023-05-23T06:32:24;4.82;;;4.43;;
17761;SDS011;9005;48.838;10.112;2023-05-23T06:34:51;8.57;;;4.63;;
17761;SDS011;9005;48.838;10.112;2023-05-23T06:37:20;16.27;;;3.47;;
17761;SDS011;9005;48.838;10.112;2023-05-23T06:39:47;11.52;;;4.55;;
17761;SDS011;9005;48.838;10.112;2023-05-23T06:42:14;3.65;;;2.58;;
17761;SDS011;9005;48.838;10.112;2023-05-23T06:44:41;1.58;;;1.50;;
17761;SDS011;9005;48.838;10.112;2023-05-23T06:47:08;5.03;;;3.22;;
17761;SDS011;9005;48.838;10.112;2023-05-23T06:49:35;3.90;;;2.58;;
17761;SDS011;9005;48.838;10.112;2023-05-23T06:52:02;20.60;;;2.63;;
17761;SDS011;9005;48.838;10.112;2023-05-23T06:54:30;2.03;;;1.92;;
17761;SDS011;9005;48.838;10.112;2023-05-23T06:56:57;5.10;;;2.22;;
17761;SDS011;9005;48.838;10.112;2023-05-23T06:59:24;3.25;;;2.22;;
17761;SDS011;9005;48.838;10.112;2023-05-23T07:01:51;4.28;;;1.65;;
17761;SDS011;9005;48.838;10.112;2023-05-23T07:04:18;4.05;;;2.45;;
17761;SDS011;9005;48.838;10.112;2023-05-23T07:06:46;2.10;;;1.90;;
17761;SDS011;9005;48.838;10.112;2023-05-23T07:09:13;1.27;;;1.23;;
17761;SDS011;9005;48.838;10.112;2023-05-23T07:11:41;1.13;;;1.13;;
17761;SDS011;9005;48.838;10.112;2023-05-23T07:14:08;1.05;;;1.02;;
17761;SDS011;9005;48.838;10.112;2023-05-23T07:16:34;1.40;;;1.30;;
17761;SDS011;9005;48.838;10.112;2023-05-23T07:19:01;1.80;;;1.67;;
17761;SDS011;9005;48.838;10.112;2023-05-23T07:21:29;1.80;;;1.27;;
17761;SDS011;9005;48.838;10.112;2023-05-23T07:23:56;1.33;;;1.23;;
17761;SDS011;9005;48.838;10.112;2023-05-23T07:26:22;0.77;;;0.77;;
17761;SDS011;9005;48.838;10.112;2023-05-23T07:28:50;0.35;;;0.35;;
17761;SDS011;9005;48.838;10.112;2023-05-23T07:31:17;1.35;;;1.25;;
17761;SDS011;9005;48.838;10.112;2023-05-23T07:33:44;2.30;;;1.50;;
17761;SDS011;9005;48.838;10.112;2023-05-23T07:36:10;3.55;;;2.22;;
17761;SDS011;9005;48.838;10.112;2023-05-23T07:38:37;1.70;;;0.90;;
17761;SDS011;9005;48.838;10.112;2023-05-23T07:41:04;0.80;;;0.80;;
17761;SDS011;9005;48.838;10.112;2023-05-23T07:43:31;2.50;;;1.60;;
17761;SDS011;9005;48.838;10.112;2023-05-23T07:45:59;3.47;;;1.60;;
17761;SDS011;9005;48.838;10.112;2023-05-23T07:48:25;0.35;;;0.35;;
17761;SDS011;9005;48.838;10.112;2023-05-23T07:50:52;0.65;;;0.65;;
17761;SDS011;9005;48.838;10.112;2023-05-23T07:53:19;0.40;;;0.40;;
17761;SDS011;9005;48.838;10.112;2023-05-23T07:55:46;0.88;;;0.88;;
17761;SDS011;9005;48.838;10.112;2023-05-23T07:58:13;0.32;;;0.32;;
17761;SDS011;9005;48.838;10.112;2023-05-23T08:00:40;1.25;;;1.23;;
17761;SDS011;9005;48.838;10.112;2023-05-23T08:03:09;3.00;;;1.48;;
17761;SDS011;9005;48.838;10.112;2023-05-23T08:05:37;0.82;;;0.65;;
17761;SDS011;9005;48.838;10.112;2023-05-23T08:08:04;1.42;;;1.10;;
17761;SDS011;9005;48.838;10.112;2023-05-23T08:10:31;0.35;;;0.35;;
17761;SDS011;9005;48.838;10.112;2023-05-23T08:12:57;0.65;;;0.65;;
17761;SDS011;9005;48.838;10.112;2023-05-23T08:15:28;1.25;;;0.80;;
17761;SDS011;9005;48.838;10.112;2023-05-23T08:17:55;0.50;;;0.50;;
17761;SDS011;9005;48.838;10.112;2023-05-23T08:20:24;0.65;;;0.65;;
17761;SDS011;9005;48.838;10.112;2023-05-23T08:22:55;2.03;;;1.02;;
17761;SDS011;9005;48.838;10.112;2023-05-23T08:25:22;0.70;;;0.70;;
17761;SDS011;9005;48.838;10.112;2023-05-23T08:27:50;0.30;;;0.30;;
17761;SDS011;9005;48.838;10.112;2023-05-23T08:30:17;1.42;;;1.30;;
17761;SDS011;9005;48.838;10.112;2023-05-23T08:32:47;3.65;;;0.93;;
17761;SDS011;9005;48.838;10.112;2023-05-23T08:35:14;0.50;;;0.50;;
17761;SDS011;9005;48.838;10.112;2023-05-23T08:37:42;0.95;;;0.95;;
17761;SDS011;9005;48.838;10.112;2023-05-23T08:40:10;1.17;;;1.08;;
17761;SDS011;9005;48.838;10.112;2023-05-23T08:42:39;0.63;;;0.63;;
17761;SDS011;9005;48.838;10.112;2023-05-23T08:45:06;0.50;;;0.50;;
17761;SDS011;9005;48.838;10.112;2023-05-23T08:47:34;0.82;;;0.40;;
17761;SDS011;9005;48.838;10.112;2023-05-23T08:50:03;1.00;;;0.65;;
17761;SDS011;9005;48.838;10.112;2023-05-23T08:52:32;0.50;;;0.50;;
17761;SDS011;9005;48.838;10.112;2023-05-23T08:55:01;0.50;;;0.50;;
17761;SDS011;9005;48.838;10.112;2023-05-23T08:57:30;1.48;;;1.38;;
17761;SDS011;9005;48.838;10.112;2023-05-23T08:59:56;1.00;;;0.95;;
17761;SDS011;9005;48.838;10.112;2023-05-23T09:02:24;0.82;;;0.82;;
17761;SDS011;9005;48.838;10.112;2023-05-23T09:04:51;1.30;;;0.60;;
17761;SDS011;9005;48.838;10.112;2023-05-23T09:07:18;0.60;;;0.60;;
17761;SDS011;9005;48.838;10.112;2023-05-23T09:09:45;1.50;;;1.40;;
17761;SDS011;9005;48.838;10.112;2023-05-23T09:12:13;1.77;;;1.40;;
17761;SDS011;9005;48.838;10.112;2023-05-23T09:14:40;1.08;;;0.93;;
17761;SDS011;9005;48.838;10.112;2023-05-23T09:17:10;1.45;;;0.90;;
17761;SDS011;9005;48.838;10.112;2023-05-23T09:19:40;0.40;;;0.40;;
17761;SDS011;9005;48.838;10.112;2023-05-23T09:22:07;0.50;;;0.50;;
17761;SDS011;9005;48.838;10.112;2023-05-23T09:24:34;0.45;;;0.45;;
17761;SDS011;9005;48.838;10.112;2023-05-23T09:27:02;1.63;;;1.10;;
17761;SDS011;9005;48.838;10.112;2023-05-23T09:29:32;1.00;;;0.95;;
17761;SDS011;9005;48.838;10.112;2023-05-23T09:32:09;1.65;;;1.30;;
17761;SDS011;9005;48.838;10.112;2023-05-23T09:34:39;0.40;;;0.40;;
17761;SDS011;9005;48.838;10.112;2023-05-23T09:37:06;1.15;;;0.85;;
17761;SDS011;9005;48.838;10.112;2023-05-23T09:39:35;0.50;;;0.50;;
17761;SDS011;9005;48.838;10.112;2023-05-23T09:42:03;0.73;;;0.73;;
17761;SDS011;9005;48.838;10.112;2023-05-23T09:44:32;0.52;;;0.52;;
17761;SDS011;9005;48.838;10.112;2023-05-23T09:47:06;0.50;;;0.50;;
17761;SDS011;9005;48.838;10.112;2023-05-23T09:49:33;2.83;;;1.13;;
17761;SDS011;9005;48.838;10.112;2023-05-23T09:52:00;0.40;;;0.40;;
17761;SDS011;9005;48.838;10.112;2023-05-23T09:54:26;2.97;;;1.00;;
17761;SDS011;9005;48.838;10.112;2023-05-23T09:56:53;1.15;;;1.10;;
17761;SDS011;9005;48.838;10.112;2023-05-23T09:59:21;0.50;;;0.50;;
17761;SDS011;9005;48.838;10.112;2023-05-23T10:01:52;0.95;;;0.95;;
17761;SDS011;9005;48.838;10.112;2023-05-23T10:04:22;0.55;;;0.55;;
17761;SDS011;9005;48.838;10.112;2023-05-23T10:06:52;0.47;;;0.47;;
17761;SDS011;9005;48.838;10.112;2023-05-23T10:09:24;2.05;;;0.60;;
17761;SDS011;9005;48.838;10.112;2023-05-23T10:15:10;0.50;;;0.50;;
17761;SDS011;9005;48.838;10.112;2023-05-23T10:17:45;0.52;;;0.52;;
17761;SDS011;9005;48.838;10.112;2023-05-23T10:20:19;0.68;;;0.68;;
17761;SDS011;9005;48.838;10.112;2023-05-23T10:22:50;1.05;;;0.88;;
17761;SDS011;9005;48.838;10.112;2023-05-23T10:25:18;0.57;;;0.57;;
17761;SDS011;9005;48.838;10.112;2023-05-23T10:27:45;0.60;;;0.60;;
17761;SDS011;9005;48.838;10.112;2023-05-23T10:30:14;0.82;;;0.82;;
17761;SDS011;9005;48.838;10.112;2023-05-23T10:32:41;0.82;;;0.80;;
17761;SDS011;9005;48.838;10.112;2023-05-23T10:35:12;0.88;;;0.75;;
17761;SDS011;9005;48.838;10.112;2023-05-23T10:37:47;0.52;;;0.50;;
17761;SDS011;9005;48.838;10.112;2023-05-23T10:40:22;1.27;;;1.27;;
17761;SDS011;9005;48.838;10.112;2023-05-23T10:42:55;0.30;;;0.30;;
17761;SDS011;9005;48.838;10.112;2023-05-23T10:45:27;0.47;;;0.47;;
17761;SDS011;9005;48.838;10.112;2023-05-23T10:47:54;1.30;;;0.55;;
17761;SDS011;9005;48.838;10.112;2023-05-23T10:50:31;1.40;;;1.08;;
17761;SDS011;9005;48.838;10.112;2023-05-23T10:53:00;0.50;;;0.50;;
17761;SDS011;9005;48.838;10.112;2023-05-23T10:55:30;9.07;;;2.05;;
17761;SDS011;9005;48.838;10.112;2023-05-23T10:58:10;0.63;;;0.50;;
17761;SDS011;9005;48.838;10.112;2023-05-23T11:00:38;0.30;;;0.30;;
17761;SDS011;9005;48.838;10.112;2023-05-23T11:03:04;0.75;;;0.75;;
17761;SDS011;9005;48.838;10.112;2023-05-23T11:05:34;0.95;;;0.50;;
17761;SDS011;9005;48.838;10.112;2023-05-23T11:08:07;0.93;;;0.93;;
17761;SDS011;9005;48.838;10.112;2023-05-23T11:10:51;0.30;;;0.30;;
17761;SDS011;9005;48.838;10.112;2023-05-23T11:13:20;1.02;;;1.00;;
17761;SDS011;9005;48.838;10.112;2023-05-23T11:15:47;1.00;;;0.65;;
17761;SDS011;9005;48.838;10.112;2023-05-23T11:18:22;1.38;;;0.63;;
17761;SDS011;9005;48.838;10.112;2023-05-23T11:20:53;0.45;;;0.45;;
17761;SDS011;9005;48.838;10.112;2023-05-23T11:23:20;0.82;;;0.80;;
17761;SDS011;9005;48.838;10.112;2023-05-23T11:25:48;0.50;;;0.40;;
17761;SDS011;9005;48.838;10.112;2023-05-23T11:28:16;0.47;;;0.47;;
17761;SDS011;9005;48.838;10.112;2023-05-23T11:30:43;0.30;;;0.30;;
17761;SDS011;9005;48.838;10.112;2023-05-23T11:33:13;0.57;;;0.57;;
17761;SDS011;9005;48.838;10.112;2023-05-23T11:35:41;0.30;;;0.30;;
17761;SDS011;9005;48.838;10.112;2023-05-23T11:38:10;0.85;;;0.85;;
17761;SDS011;9005;48.838;10.112;2023-05-23T11:40:37;0.30;;;0.30;;
17761;SDS011;9005;48.838;10.112;2023-05-23T11:43:05;0.43;;;0.43;;
17761;SDS011;9005;48.838;10.112;2023-05-23T11:45:33;0.52;;;0.52;;
17761;SDS011;9005;48.838;10.112;2023-05-23T11:48:03;1.38;;;0.60;;
17761;SDS011;9005;48.838;10.112;2023-05-23T11:50:31;0.52;;;0.52;;
17761;SDS011;9005;48.838;10.112;2023-05-23T11:52:58;0.70;;;0.70;;
17761;SDS011;9005;48.838;10.112;2023-05-23T11:55:26;0.82;;;0.82;;
17761;SDS011;9005;48.838;10.112;2023-05-23T11:57:54;0.35;;;0.35;;
17761;SDS011;9005;48.838;10.112;2023-05-23T12:00:21;0.43;;;0.43;;
17761;SDS011;9005;48.838;10.112;2023-05-23T12:02:48;0.55;;;0.55;;
17761;SDS011;9005;48.838;10.112;2023-05-23T12:05:15;0.70;;;0.70;;
17761;SDS011;9005;48.838;10.112;2023-05-23T12:07:42;0.30;;;0.30;;
17761;SDS011;9005;48.838;10.112;2023-05-23T12:10:10;0.52;;;0.52;;
17761;SDS011;9005;48.838;10.112;2023-05-23T12:12:38;1.40;;;1.10;;
17761;SDS011;9005;48.838;10.112;2023-05-23T12:15:07;0.35;;;0.35;;
17761;SDS011;9005;48.838;10.112;2023-05-23T12:17:35;1.38;;;1.08;;
17761;SDS011;9005;48.838;10.112;2023-05-23T12:20:02;0.50;;;0.50;;
17761;SDS011;9005;48.838;10.112;2023-05-23T12:22:29;0.68;;;0.68;;
17761;SDS011;9005;48.838;10.112;2023-05-23T12:24:56;0.50;;;0.50;;
17761;SDS011;9005;48.838;10.112;2023-05-23T12:27:26;0.52;;;0.52;;
17761;SDS011;9005;48.838;10.112;2023-05-23T12:30:06;7.88;;;1.65;;
17761;SDS011;9005;48.838;10.112;2023-05-23T12:32:34;0.57;;;0.57;;
17761;SDS011;9005;48.838;10.112;2023-05-23T12:35:04;0.63;;;0.63;;
17761;SDS011;9005;48.838;10.112;2023-05-23T12:37:32;0.70;;;0.70;;
17761;SDS011;9005;48.838;10.112;2023-05-23T12:40:07;0.40;;;0.40;;
17761;SDS011;9005;48.838;10.112;2023-05-23T12:42:42;0.73;;;0.35;;
17761;SDS011;9005;48.838;10.112;2023-05-23T12:45:16;0.30;;;0.30;;
17761;SDS011;9005;48.838;10.112;2023-05-23T12:47:43;0.68;;;0.68;;
17761;SDS011;9005;48.838;10.112;2023-05-23T12:50:10;2.00;;;1.10;;
17761;SDS011;9005;48.838;10.112;2023-05-23T12:52:37;2.15;;;1.38;;
17761;SDS011;9005;48.838;10.112;2023-05-23T12:55:04;0.45;;;0.45;;
17761;SDS011;9005;48.838;10.112;2023-05-23T12:57:32;0.20;;;0.20;;
17761;SDS011;9005;48.838;10.112;2023-05-23T13:00:00;0.65;;;0.65;;
17761;SDS011;9005;48.838;10.112;2023-05-23T13:02:28;9.40;;;1.10;;
17761;SDS011;9005;48.838;10.112;2023-05-23T13:04:55;0.28;;;0.28;;
17761;SDS011;9005;48.838;10.112;2023-05-23T13:07:22;0.85;;;0.73;;
17761;SDS011;9005;48.838;10.112;2023-05-23T13:09:49;0.20;;;0.20;;
17761;SDS011;9005;48.838;10.112;2023-05-23T13:12:16;0.65;;;0.63;;
17761;SDS011;9005;48.838;10.112;2023-05-23T13:14:43;0.30;;;0.30;;
17761;SDS011;9005;48.838;10.112;2023-05-23T13:17:10;0.40;;;0.40;;
17761;SDS011;9005;48.838;10.112;2023-05-23T13:19:38;1.05;;;0.30;;
17761;SDS011;9005;48.838;10.112;2023-05-23T13:22:05;0.20;;;0.20;;
17761;SDS011;9005;48.838;10.112;2023-05-23T13:24:34;0.20;;;0.20;;
17761;SDS011;9005;48.838;10.112;2023-05-23T13:27:01;1.80;;;0.70;;
17761;SDS011;9005;48.838;10.112;2023-05-23T13:29:28;0.30;;;0.30;;
17761;SDS011;9005;48.838;10.112;2023-05-23T13:31:55;2.00;;;0.40;;
17761;SDS011;9005;48.838;10.112;2023-05-23T13:34:22;0.43;;;0.43;;
17761;SDS011;9005;48.838;10.112;2023-05-23T13:36:50;1.25;;;1.00;;
17761;SDS011;9005;48.838;10.112;2023-05-23T13:39:17;0.20;;;0.20;;
17761;SDS011;9005;48.838;10.112;2023-05-23T13:41:45;0.30;;;0.30;;
17761;SDS011;9005;48.838;10.112;2023-05-23T13:44:11;0.75;;;0.75;;
17761;SDS011;9005;48.838;10.112;2023-05-23T13:46:38;0.57;;;0.57;;
17761;SDS011;9005;48.838;10.112;2023-05-23T13:49:05;0.45;;;0.45;;
17761;SDS011;9005;48.838;10.112;2023-05-23T13:51:32;1.38;;;0.50;;
17761;SDS011;9005;48.838;10.112;2023-05-23T13:54:02;0.20;;;0.20;;
17761;SDS011;9005;48.838;10.112;2023-05-23T13:56:28;0.10;;;0.10;;
17761;SDS011;9005;48.838;10.112;2023-05-23T13:58:56;0.10;;;0.10;;
17761;SDS011;9005;48.838;10.112;2023-05-23T14:01:22;0.32;;;0.32;;
17761;SDS011;9005;48.838;10.112;2023-05-23T14:03:49;0.32;;;0.32;;
17761;SDS011;9005;48.838;10.112;2023-05-23T14:06:16;0.60;;;0.60;;
17761;SDS011;9005;48.838;10.112;2023-05-23T14:08:43;0.30;;;0.30;;
17761;SDS011;9005;48.838;10.112;2023-05-23T14:11:11;0.35;;;0.30;;
17761;SDS011;9005;48.838;10.112;2023-05-23T14:13:38;0.20;;;0.20;;
17761;SDS011;9005;48.838;10.112;2023-05-23T14:16:05;0.13;;;0.13;;
17761;SDS011;9005;48.838;10.112;2023-05-23T14:18:32;0.20;;;0.20;;
17761;SDS011;9005;48.838;10.112;2023-05-23T14:20:58;0.32;;;0.32;;
17761;SDS011;9005;48.838;10.112;2023-05-23T14:23:25;0.22;;;0.22;;
17761;SDS011;9005;48.838;10.112;2023-05-23T14:25:52;0.35;;;0.35;;
17761;SDS011;9005;48.838;10.112;2023-05-23T14:28:20;0.40;;;0.40;;
17761;SDS011;9005;48.838;10.112;2023-05-23T14:30:46;3.00;;;0.20;;
17761;SDS011;9005;48.838;10.112;2023-05-23T14:33:13;0.30;;;0.30;;
17761;SDS011;9005;48.838;10.112;2023-05-23T14:35:40;0.20;;;0.20;;
17761;SDS011;9005;48.838;10.112;2023-05-23T14:38:07;10.43;;;0.57;;
17761;SDS011;9005;48.838;10.112;2023-05-23T14:40:34;0.22;;;0.22;;
17761;SDS011;9005;48.838;10.112;2023-05-23T14:43:01;0.20;;;0.20;;
17761;SDS011;9005;48.838;10.112;2023-05-23T14:45:29;0.20;;;0.20;;
17761;SDS011;9005;48.838;10.112;2023-05-23T14:47:56;0.60;;;0.60;;
17761;SDS011;9005;48.838;10.112;2023-05-23T14:50:22;0.25;;;0.25;;
17761;SDS011;9005;48.838;10.112;2023-05-23T14:52:51;0.38;;;0.38;;
17761;SDS011;9005;48.838;10.112;2023-05-23T14:55:17;0.10;;;0.10;;